Time;durP1;ratioP1;P1;durP2;ratioP2;P2;SDS_P1;SDS_P2;PMS_P1;PMS_P2;Temp;Humidity;BMP_temperature;BMP_pressure;BME280_temperature;BME280_humidity;BME280_pressure;Samples;Min_cycle;Max_cycle;Signal;HPM_P1;HPM_P2
2023/07/30 00:01:05;;;;;;;;;2.67;1.00;;;;;23.89;100.00;100552.88;6251197;22;44788;-81
2023/07/30 00:03:37;;;;;;;;;2.67;2.33;;;;;23.84;100.00;100544.97;6251163;22;44867;-81
2023/07/30 00:06:03;;;;;;;;;2.00;2.00;;;;;23.81;100.00;100546.91;6248871;22;47616;-81
2023/07/30 00:08:28;;;;;;;;;2.00;2.00;;;;;23.76;100.00;100542.53;6250183;22;44723;-81
2023/07/30 00:10:57;;;;;;;;;1.00;1.00;;;;;23.92;100.00;100548.22;6251367;22;44792;-81
2023/07/30 00:13:22;;;;;;;;;2.50;2.50;;;;;23.64;100.00;100553.94;6265316;22;44762;-81
2023/07/30 00:15:48;;;;;;;;;1.00;1.00;;;;;23.63;100.00;100557.63;6264211;22;45162;-82
2023/07/30 00:18:15;;;;;;;;;2.00;2.00;;;;;23.66;100.00;100557.47;6238066;22;44839;-82
2023/07/30 00:20:40;;;;;;;;;2.75;2.25;;;;;23.55;100.00;100554.31;6265585;22;45095;-82
2023/07/30 00:23:06;;;;;;;;;3.25;3.00;;;;;23.60;100.00;100551.44;6265604;22;44825;-81
2023/07/30 00:25:31;;;;;;;;;2.75;1.00;;;;;23.64;100.00;100555.78;6237310;22;47298;-81
2023/07/30 00:27:57;;;;;;;;;3.00;2.00;;;;;23.56;100.00;100540.69;6264840;22;44835;-81
2023/07/30 00:30:22;;;;;;;;;2.00;2.00;;;;;23.78;100.00;100549.78;6236864;22;45050;-81
2023/07/30 00:32:47;;;;;;;;;3.25;2.75;;;;;23.70;100.00;100542.81;6265096;22;44832;-82
2023/07/30 00:35:13;;;;;;;;;3.00;2.00;;;;;23.63;100.00;100535.91;6236481;22;46812;-81
2023/07/30 00:37:39;;;;;;;;;1.25;1.25;;;;;23.86;100.00;100548.50;6263959;22;44712;-81
2023/07/30 00:40:12;;;;;;;;;2.75;1.50;;;;;23.97;100.00;100548.00;6236828;22;44799;-81
2023/07/30 00:42:37;;;;;;;;;3.00;2.00;;;;;23.64;100.00;100555.78;6236300;22;44875;-82
2023/07/30 00:45:03;;;;;;;;;1.25;1.25;;;;;23.78;100.00;100549.78;6263615;22;45133;-82
2023/07/30 00:47:28;;;;;;;;;4.25;2.00;;;;;23.69;100.00;100570.94;6263983;22;44740;-82
2023/07/30 00:53:17;;;;;;;;;1.00;1.00;;;;;23.56;100.00;100572.38;6264175;22;44781;-82
2023/07/30 00:55:43;;;;;;;;;1.00;1.00;;;;;23.53;99.82;100578.84;6254379;22;45220;-80
2023/07/30 00:58:13;;;;;;;;;1.25;1.25;;;;;23.58;98.28;100585.91;6243394;22;45492;-81
2023/07/30 01:00:39;;;;;;;;;1.25;1.25;;;;;23.40;95.60;100593.88;6217075;22;45415;-80
2023/07/30 01:03:04;;;;;;;;;1.00;1.00;;;;;23.28;97.12;100583.50;6244700;22;45421;-80
2023/07/30 01:05:30;;;;;;;;;1.00;1.00;;;;;23.23;95.89;100586.44;6218004;22;46939;-80
2023/07/30 01:07:56;;;;;;;;;1.25;1.00;;;;;23.12;100.00;100583.25;6217904;22;45389;-80
2023/07/30 01:10:24;;;;;;;;;0.25;0.25;;;;;23.36;100.00;100597.66;6218370;22;45251;-80
2023/07/30 01:12:51;;;;;;;;;1.00;1.00;;;;;23.24;100.00;100598.16;6217405;22;45312;-80
2023/07/30 01:15:17;;;;;;;;;2.00;1.00;;;;;23.32;100.00;100607.75;6217912;22;45973;-84
2023/07/30 01:17:42;;;;;;;;;2.75;0.00;;;;;23.35;100.00;100599.50;6220879;22;45394;-82
2023/07/30 01:20:10;;;;;;;;;1.00;1.00;;;;;23.35;100.00;100596.78;6246502;22;45341;-83
2023/07/30 01:22:35;;;;;;;;;1.00;1.00;;;;;23.47;100.00;100602.63;6223070;22;44741;-80
2023/07/30 01:25:01;;;;;;;;;3.50;2.00;;;;;23.47;100.00;100599.91;6223284;22;45438;-81
2023/07/30 01:27:33;;;;;;;;;3.00;2.00;;;;;23.81;100.00;100612.97;6223166;22;44767;-81
2023/07/30 01:30:20;;;;;;;;;1.00;1.00;;;;;23.94;100.00;100622.38;6250373;22;44838;-81
2023/07/30 01:32:50;;;;;;;;;2.00;2.00;;;;;23.63;100.00;100611.91;6224538;22;44820;-81
2023/07/30 01:35:18;;;;;;;;;1.00;1.00;;;;;23.38;100.00;100627.44;6250893;22;45579;-81
2023/07/30 01:37:44;;;;;;;;;2.00;2.00;;;;;23.35;100.00;100618.50;6222948;22;45277;-80
2023/07/30 01:40:13;;;;;;;;;1.00;1.00;;;;;23.27;100.00;100628.78;6250583;22;44760;-81
2023/07/30 01:42:42;;;;;;;;;1.25;1.25;;;;;23.51;100.00;100628.69;6223532;22;44860;-80
2023/07/30 01:45:07;;;;;;;;;0.75;0.75;;;;;23.17;100.00;100627.38;6249050;22;46685;-81
2023/07/30 01:47:33;;;;;;;;;1.00;1.00;;;;;23.31;100.00;100637.69;6222725;22;44947;-82
2023/07/30 01:49:59;;;;;;;;;1.00;1.00;;;;;23.29;100.00;100640.44;6248460;22;44886;-81
2023/07/30 01:52:25;;;;;;;;;1.75;1.25;;;;;23.24;100.00;100638.84;6222575;22;44764;-82
2023/07/30 01:54:50;;;;;;;;;1.25;1.25;;;;;23.22;100.00;100644.34;6222217;22;47136;-81
2023/07/30 01:57:16;;;;;;;;;1.50;1.50;;;;;23.17;100.00;100649.09;6252156;22;44860;-82
2023/07/30 01:59:41;;;;;;;;;0.25;0.25;;;;;23.12;100.00;100648.38;6251424;22;45023;-81
2023/07/30 02:02:07;;;;;;;;;1.25;0.50;;;;;23.14;100.00;100641.03;6225713;22;45041;-81
2023/07/30 02:04:34;;;;;;;;;1.75;1.00;;;;;23.14;100.00;100646.47;6252749;22;46024;-81
2023/07/30 02:06:59;;;;;;;;;0.75;0.75;;;;;23.11;100.00;100646.63;6224777;22;44694;-81
2023/07/30 02:09:25;;;;;;;;;0.75;0.75;;;;;23.01;100.00;100656.03;6225375;22;44871;-81
2023/07/30 02:11:50;;;;;;;;;1.00;1.00;;;;;22.90;100.00;100657.28;6224970;22;44845;-81
2023/07/30 02:14:17;;;;;;;;;3.00;3.00;;;;;23.06;100.00;100659.47;6250194;22;45346;-81
2023/07/30 02:16:43;;;;;;;;;3.50;2.75;;;;;22.90;100.00;100654.59;6250255;22;45344;-81
2023/07/30 02:19:08;;;;;;;;;2.00;2.00;;;;;22.99;100.00;100657.91;6252396;22;45691;-81
2023/07/30 02:21:36;;;;;;;;;3.00;1.25;;;;;23.05;100.00;100669.44;6252045;22;44843;-82
2023/07/30 02:24:02;;;;;;;;;1.00;1.00;;;;;23.03;100.00;100659.59;6251496;22;45017;-82
2023/07/30 02:26:27;;;;;;;;;1.75;1.75;;;;;23.01;100.00;100667.75;6249179;22;45185;-81
2023/07/30 02:28:53;;;;;;;;;0.33;0.00;;;;;23.02;100.00;100663.22;6249145;22;44693;-82
2023/07/30 02:31:18;;;;;;;;;1.00;1.00;;;;;23.03;100.00;100673.16;6247630;22;44868;-81
2023/07/30 02:33:43;;;;;;;;;1.50;1.50;;;;;23.07;100.00;100672.09;6221001;22;46958;-83
2023/07/30 02:36:09;;;;;;;;;2.25;1.00;;;;;23.05;100.00;100672.16;6248888;22;45348;-81
2023/07/30 02:38:34;;;;;;;;;4.50;1.75;;;;;23.04;100.00;100674.91;6248383;22;44733;-80
2023/07/30 02:40:59;;;;;;;;;2.75;1.50;;;;;23.00;100.00;100671.38;6223497;22;44971;-80
2023/07/30 02:46:47;;;;;;;;;3.00;1.00;;;;;23.17;100.00;100681.63;6249069;22;44718;-82
2023/07/30 02:49:12;;;;;;;;;1.00;1.00;;;;;23.16;100.00;100677.13;6248230;22;44793;-81
2023/07/30 02:51:37;;;;;;;;;2.00;2.00;;;;;23.11;100.00;100671.03;6250243;22;44764;-82
2023/07/30 02:54:09;;;;;;;;;2.67;1.00;;;;;23.38;100.00;100676.28;6249532;22;45092;-82
2023/07/30 02:56:36;;;;;;;;;2.00;1.00;;;;;23.20;100.00;100667.94;6248556;22;44898;-80
2023/07/30 02:59:01;;;;;;;;;2.00;2.00;;;;;23.03;100.00;100670.44;6250524;22;44826;-81
2023/07/30 03:01:27;;;;;;;;;2.00;2.00;;;;;23.00;100.00;100670.50;6248223;22;44704;-81
2023/07/30 03:03:52;;;;;;;;;1.67;1.00;;;;;23.01;100.00;100675.00;6250436;22;45120;-81
2023/07/30 03:06:17;;;;;;;;;2.00;1.00;;;;;23.04;100.00;100677.63;6250919;22;44733;-81
2023/07/30 03:08:43;;;;;;;;;2.00;2.00;;;;;23.14;100.00;100684.44;6224753;22;44908;-82
2023/07/30 03:11:09;;;;;;;;;2.00;2.00;;;;;22.97;100.00;100688.69;6224613;22;44803;-81
2023/07/30 03:13:34;;;;;;;;;1.00;1.00;;;;;22.94;100.00;100686.06;6224654;22;47139;-81
2023/07/30 03:16:00;;;;;;;;;1.33;1.33;;;;;22.99;100.00;100682.31;6249248;22;44684;-82
2023/07/30 03:18:25;;;;;;;;;2.33;1.00;;;;;23.02;100.00;100677.66;6250716;22;45236;-81
2023/07/30 03:20:50;;;;;;;;;3.00;2.33;;;;;23.01;100.00;100684.03;6250672;22;44788;-81
2023/07/30 03:23:16;;;;;;;;;1.67;1.67;;;;;22.84;100.00;100671.09;6221707;22;47323;-81
2023/07/30 03:25:41;;;;;;;;;1.75;1.75;;;;;22.91;100.00;100688.91;6250187;22;44838;-81
2023/07/30 03:28:06;;;;;;;;;3.33;3.33;;;;;22.92;100.00;100687.06;6225101;22;45076;-82
2023/07/30 03:30:32;;;;;;;;;1.75;1.00;;;;;22.96;100.00;100686.88;6223048;22;44908;-81
2023/07/30 03:32:59;;;;;;;;;2.00;2.00;;;;;23.14;100.00;100677.19;6249660;22;45145;-81
2023/07/30 03:35:24;;;;;;;;;2.33;2.33;;;;;22.87;100.00;100689.97;6222483;22;44919;-81
2023/07/30 03:37:49;;;;;;;;;1.33;1.33;;;;;22.88;100.00;100688.13;6224399;22;44897;-81
2023/07/30 03:40:15;;;;;;;;;2.00;2.00;;;;;22.89;100.00;100693.50;6251848;22;44820;-81
2023/07/30 03:42:43;;;;;;;;;1.00;1.00;;;;;22.76;100.00;100694.91;6249204;22;45145;-83
2023/07/30 03:45:09;;;;;;;;;2.33;2.00;;;;;22.71;100.00;100702.34;6221960;22;44740;-81
2023/07/30 03:47:34;;;;;;;;;2.00;2.00;;;;;22.69;100.00;100696.97;6222843;22;45305;-81
2023/07/30 03:49:59;;;;;;;;;3.00;2.00;;;;;22.69;100.00;100705.09;6223267;22;44777;-82
2023/07/30 03:52:25;;;;;;;;;3.00;3.00;;;;;22.65;100.00;100718.81;6199316;22;47306;-82
2023/07/30 03:54:50;;;;;;;;;1.00;1.00;;;;;22.59;100.00;100706.38;6223789;22;44800;-82
2023/07/30 03:57:16;;;;;;;;;2.00;1.00;;;;;22.73;100.00;100705.88;6251451;22;44748;-82
2023/07/30 03:59:41;;;;;;;;;1.67;1.67;;;;;22.68;100.00;100718.69;6223486;22;44910;-81
2023/07/30 04:02:07;;;;;;;;;6.00;3.00;;;;;22.63;100.00;100716.16;6223590;22;47270;-81
2023/07/30 04:04:32;;;;;;;;;4.00;2.00;;;;;22.67;100.00;100706.97;6223821;22;44796;-81
2023/07/30 04:06:57;;;;;;;;;3.00;1.00;;;;;22.63;100.00;100710.75;6251314;22;44741;-81
2023/07/30 04:09:23;;;;;;;;;2.00;2.00;;;;;22.63;100.00;100727.00;6224438;22;44934;-82
2023/07/30 04:11:48;;;;;;;;;2.00;2.00;;;;;22.61;100.00;100723.47;6250204;22;44850;-81
2023/07/30 04:14:13;;;;;;;;;3.25;2.25;;;;;22.69;100.00;100726.78;6250743;22;45414;-82
2023/07/30 04:16:39;;;;;;;;;6.25;3.00;;;;;22.70;100.00;100711.41;6249552;22;45131;-82
2023/07/30 04:19:04;;;;;;;;;2.00;2.00;;;;;22.68;100.00;100724.13;6224155;22;44796;-82
2023/07/30 04:21:30;;;;;;;;;2.00;2.00;;;;;22.68;100.00;100718.69;6223673;22;47045;-83
2023/07/30 04:23:55;;;;;;;;;3.00;2.00;;;;;22.63;100.00;100723.41;6250528;22;44670;-82
2023/07/30 04:26:21;;;;;;;;;2.50;1.50;;;;;22.79;100.00;100730.03;6222161;22;45152;-82
2023/07/30 04:28:46;;;;;;;;;2.75;2.75;;;;;22.65;100.00;100737.81;6250903;22;44805;-81
2023/07/30 04:31:11;;;;;;;;;1.50;1.50;;;;;22.81;100.00;100730.00;6223177;22;47091;-82
2023/07/30 04:33:37;;;;;;;;;3.00;3.00;;;;;22.83;100.00;100729.00;6224536;22;45291;-82
2023/07/30 04:36:02;;;;;;;;;2.00;2.00;;;;;22.72;100.00;100728.50;6224240;22;44782;-82
2023/07/30 04:38:29;;;;;;;;;3.00;3.00;;;;;22.54;100.00;100728.22;6223388;22;45346;-82
2023/07/30 04:40:57;;;;;;;;;3.33;2.00;;;;;22.76;100.00;100733.75;6222821;22;47182;-82
2023/07/30 04:43:23;;;;;;;;;1.67;1.00;;;;;22.50;100.00;100740.13;6251653;22;45048;-82
2023/07/30 04:45:49;;;;;;;;;4.33;2.00;;;;;22.80;100.00;100739.94;6252395;22;44764;-82
2023/07/30 04:48:15;;;;;;;;;1.67;1.33;;;;;22.53;100.00;100752.69;6223210;22;44813;-82
2023/07/30 04:50:41;;;;;;;;;3.00;3.00;;;;;22.50;100.00;100750.97;6249819;22;44933;-81
2023/07/30 04:53:08;;;;;;;;;5.33;2.33;;;;;22.61;100.00;100747.00;6224074;22;44888;-81
2023/07/30 04:55:33;;;;;;;;;2.00;1.33;;;;;22.46;100.00;100746.59;6247269;22;45347;-80
2023/07/30 04:57:59;;;;;;;;;6.33;3.00;;;;;22.52;100.00;100765.34;6218507;22;45424;-81
2023/07/30 05:00:24;;;;;;;;;2.33;2.33;;;;;22.59;100.00;100773.25;6217751;22;45364;-80
2023/07/30 05:02:49;;;;;;;;;2.00;2.00;;;;;22.55;100.00;100759.81;6227063;22;45416;-80
2023/07/30 05:05:15;;;;;;;;;2.00;2.00;;;;;22.50;100.00;100771.75;6247054;22;45544;-82
2023/07/30 05:07:40;;;;;;;;;1.67;1.67;;;;;22.43;100.00;100776.50;6262652;22;44724;-82
2023/07/30 05:10:09;;;;;;;;;4.00;2.00;;;;;22.54;100.00;100777.03;6250484;22;47145;-81
2023/07/30 05:12:35;;;;;;;;;3.33;2.00;;;;;22.52;100.00;100778.00;6251033;22;44856;-84
2023/07/30 05:15:00;;;;;;;;;3.67;3.00;;;;;22.59;100.00;100774.13;6245851;22;45407;-84
2023/07/30 05:17:26;;;;;;;;;2.67;2.67;;;;;22.61;100.00;100785.81;6247218;22;45314;-84
2023/07/30 05:19:51;;;;;;;;;2.00;2.00;;;;;22.59;100.00;100774.13;6244626;22;45303;-83
2023/07/30 05:22:17;;;;;;;;;4.00;2.33;;;;;22.76;100.00;100792.50;6247168;22;44878;-83
2023/07/30 05:24:42;;;;;;;;;1.25;1.25;;;;;22.78;100.00;100790.63;6247962;22;45331;-84
2023/07/30 05:27:07;;;;;;;;;2.00;2.00;;;;;22.79;100.00;100787.00;6247664;22;45273;-83
2023/07/30 05:29:33;;;;;;;;;2.00;2.00;;;;;22.85;100.00;100799.44;6246998;22;44996;-84
2023/07/30 05:31:58;;;;;;;;;3.00;3.00;;;;;22.96;100.00;100789.06;6249665;22;45366;-84
2023/07/30 05:34:24;;;;;;;;;2.00;2.00;;;;;23.06;100.00;100785.13;6275240;22;45392;-81
2023/07/30 05:36:49;;;;;;;;;2.00;2.00;;;;;23.18;100.00;100794.63;6259427;22;45311;-83
2023/07/30 05:39:14;;;;;;;;;2.00;2.00;;;;;23.29;100.00;100789.69;6246915;22;47659;-84
2023/07/30 05:41:40;;;;;;;;;2.33;2.33;;;;;23.34;100.00;100784.97;6248689;22;44809;-84
2023/07/30 05:44:05;;;;;;;;;4.00;2.00;;;;;23.43;100.00;100782.84;6249152;22;45383;-84
2023/07/30 05:46:31;;;;;;;;;5.33;3.33;;;;;23.57;100.00;100785.88;6246818;22;44874;-84
2023/07/30 05:48:56;;;;;;;;;1.67;1.67;;;;;23.66;100.00;100777.41;6244423;22;47137;-81
2023/07/30 05:51:22;;;;;;;;;1.67;1.67;;;;;23.62;100.00;100773.03;6245563;22;45336;-82
2023/07/30 05:53:53;;;;;;;;;3.00;3.00;;;;;24.07;100.00;100776.69;6246732;22;44910;-82
2023/07/30 05:56:19;;;;;;;;;1.33;1.33;;;;;23.85;100.00;100768.53;6248444;22;44988;-85
2023/07/30 05:58:45;;;;;;;;;2.00;1.00;;;;;24.02;100.00;100786.88;6249828;22;45304;-85
2023/07/30 06:01:11;;;;;;;;;2.33;1.33;;;;;24.07;100.00;100780.28;6248681;22;44895;-84
2023/07/30 06:03:37;;;;;;;;;4.33;3.00;;;;;24.24;100.00;100784.13;6227820;22;45566;-83
2023/07/30 06:06:09;;;;;;;;;1.33;1.33;;;;;24.32;98.68;100782.00;6221378;22;45438;-83
2023/07/30 06:08:34;;;;;;;;;4.33;3.67;;;;;24.31;100.00;100783.81;6220774;22;47225;-84
2023/07/30 06:11:02;;;;;;;;;1.00;1.00;;;;;24.54;100.00;100798.28;6219901;22;53902;-84
2023/07/30 06:13:28;;;;;;;;;4.00;1.25;;;;;24.44;100.00;100792.34;6247463;22;45492;-84
2023/07/30 06:15:54;;;;;;;;;2.33;2.33;;;;;24.64;100.00;100796.97;6248089;22;44772;-84
2023/07/30 06:18:19;;;;;;;;;3.00;3.00;;;;;24.69;100.00;100794.03;6220876;22;47130;-84
2023/07/30 06:20:45;;;;;;;;;2.00;2.00;;;;;24.83;100.00;100793.44;6247792;22;45443;-84
2023/07/30 06:23:10;;;;;;;;;2.00;2.00;;;;;24.88;100.00;100800.41;6219425;22;45356;-84
2023/07/30 06:25:35;;;;;;;;;4.50;2.00;;;;;24.89;100.00;100813.06;6247932;22;45740;-85
2023/07/30 06:28:01;;;;;;;;;2.00;2.00;;;;;24.99;100.00;100815.41;6219729;22;47081;-84
2023/07/30 06:30:29;;;;;;;;;3.25;3.25;;;;;25.12;98.82;100824.75;6221516;22;45684;-86
2023/07/30 06:32:54;;;;;;;;;3.00;3.00;;;;;25.10;100.00;100815.78;6221080;22;44777;-83
2023/07/30 06:35:20;;;;;;;;;2.75;2.75;;;;;25.30;100.00;100839.41;6221171;22;45376;-84
2023/07/30 06:37:52;;;;;;;;;2.75;2.75;;;;;25.70;100.00;100827.53;6221142;22;47074;-85
2023/07/30 06:40:17;;;;;;;;;3.00;2.00;;;;;25.67;100.00;100841.31;6223602;22;45325;-85
2023/07/30 06:42:42;;;;;;;;;2.67;2.67;;;;;25.64;100.00;100840.56;6222197;22;44724;-84
2023/07/30 06:45:08;;;;;;;;;4.25;2.75;;;;;25.63;100.00;100842.41;6221613;22;45240;-85
2023/07/30 06:47:34;;;;;;;;;0.00;0.00;;;;;25.54;100.00;100856.44;6247427;22;46931;-84
2023/07/30 06:49:59;;;;;;;;;2.50;2.00;;;;;25.62;100.00;100848.81;6221051;22;45353;-83
2023/07/30 06:52:25;;;;;;;;;3.00;3.00;;;;;25.78;96.82;100845.38;6221240;22;44767;-83
2023/07/30 06:54:51;;;;;;;;;3.00;3.00;;;;;25.55;100.00;100850.94;6221141;22;45304;-82
2023/07/30 06:57:16;;;;;;;;;4.00;3.00;;;;;25.56;91.53;100843.66;6235418;22;46646;-81
2023/07/30 06:59:42;;;;;;;;;4.00;3.00;;;;;25.56;100.00;100840.91;6235822;22;44761;-82
2023/07/30 07:02:07;;;;;;;;;3.67;3.67;;;;;25.59;96.80;100846.22;6265483;22;44844;-82
2023/07/30 07:04:32;;;;;;;;;4.67;4.00;;;;;25.55;95.72;100845.50;6236236;22;44784;-81
2023/07/30 07:06:58;;;;;;;;;2.33;2.33;;;;;25.48;95.42;100846.72;6262224;22;44968;-82
2023/07/30 07:09:23;;;;;;;;;1.33;1.33;;;;;25.52;96.16;100842.91;6262287;22;44782;-82
2023/07/30 07:11:49;;;;;;;;;2.33;2.33;;;;;25.60;97.48;100853.44;6236054;22;44853;-82
2023/07/30 07:14:14;;;;;;;;;2.00;2.00;;;;;25.68;89.00;100850.34;6237465;22;44817;-81
2023/07/30 07:16:39;;;;;;;;;1.33;1.33;;;;;25.71;92.53;100840.22;6236625;22;47184;-82
2023/07/30 07:19:05;;;;;;;;;3.00;3.00;;;;;25.81;95.18;100847.94;6263352;22;50822;-82
2023/07/30 07:21:30;;;;;;;;;4.00;4.00;;;;;25.86;94.96;100848.59;6264226;22;45171;-82
2023/07/30 07:23:55;;;;;;;;;3.33;3.33;;;;;26.00;91.39;100857.03;6264054;22;44859;-81
2023/07/30 07:26:21;;;;;;;;;6.33;3.33;;;;;26.03;89.98;100865.03;6263312;22;45859;-82
2023/07/30 07:28:46;;;;;;;;;4.00;2.00;;;;;26.19;90.95;100853.41;6236871;22;44828;-82
2023/07/30 07:31:11;;;;;;;;;2.00;1.33;;;;;26.24;88.54;100849.50;6236042;22;44788;-81
2023/07/30 07:33:37;;;;;;;;;4.00;4.00;;;;;26.33;91.60;100859.03;6237022;22;44750;-82
2023/07/30 07:36:06;;;;;;;;;4.00;2.33;;;;;26.66;86.32;100852.88;6237114;22;47149;-82
2023/07/30 07:38:33;;;;;;;;;3.00;3.00;;;;;26.49;92.33;100854.59;6262930;22;44741;-82
2023/07/30 07:40:59;;;;;;;;;3.67;2.67;;;;;26.72;90.63;100858.91;6236068;22;44816;-81
2023/07/30 07:43:24;;;;;;;;;4.67;3.00;;;;;26.72;80.25;100867.09;6262856;22;44786;-81
2023/07/30 07:45:50;;;;;;;;;4.00;4.00;;;;;26.57;84.52;100872.41;6236657;22;47042;-82
2023/07/30 07:48:15;;;;;;;;;4.00;4.00;;;;;26.57;87.29;100875.16;6262955;22;44688;-80
2023/07/30 07:50:41;;;;;;;;;3.33;3.00;;;;;26.43;85.72;100876.72;6264375;22;44745;-82
2023/07/30 07:53:06;;;;;;;;;1.67;1.67;;;;;26.35;84.26;100873.47;6236237;22;44794;-82
2023/07/30 07:55:31;;;;;;;;;4.00;4.00;;;;;26.52;86.21;100873.53;6264772;22;44908;-82
2023/07/30 07:57:57;;;;;;;;;6.00;5.00;;;;;26.81;89.25;100887.56;6264076;22;45306;-82
2023/07/30 08:00:22;;;;;;;;;5.33;3.00;;;;;26.90;86.87;100881.63;6264358;22;45238;-82
2023/07/30 08:02:47;;;;;;;;;3.00;3.00;;;;;26.90;81.16;100892.53;6220670;22;45471;-80
2023/07/30 08:05:13;;;;;;;;;4.00;4.00;;;;;26.69;77.62;100899.09;6246636;22;45803;-81
2023/07/30 08:07:39;;;;;;;;;4.00;3.00;;;;;26.50;79.79;100888.19;6220500;22;44809;-81
2023/07/30 08:10:05;;;;;;;;;2.33;1.00;;;;;26.52;79.50;100892.63;6219421;22;45357;-81
2023/07/30 08:12:33;;;;;;;;;2.67;2.67;;;;;26.76;84.38;100886.91;6246234;22;45422;-80
2023/07/30 08:14:59;;;;;;;;;5.25;3.00;;;;;26.80;85.14;100891.25;6245496;22;45427;-80
2023/07/30 08:17:24;;;;;;;;;1.75;1.75;;;;;27.12;78.13;100907.81;6217182;22;45367;-81
2023/07/30 08:19:50;;;;;;;;;2.00;2.00;;;;;27.05;75.67;100890.00;6218027;22;45234;-80
2023/07/30 08:22:15;;;;;;;;;3.67;3.00;;;;;27.00;69.56;100894.78;6243073;22;45535;-80
2023/07/30 08:24:41;;;;;;;;;5.50;4.25;;;;;26.95;75.64;100878.66;6245265;22;45305;-80
2023/07/30 08:27:06;;;;;;;;;4.25;3.50;;;;;27.00;78.31;100889.34;6226116;22;45452;-82
2023/07/30 08:29:32;;;;;;;;;2.25;2.25;;;;;27.10;72.39;100893.34;6236548;22;44969;-81
2023/07/30 08:31:57;;;;;;;;;1.25;1.25;;;;;27.10;74.71;100887.88;6263601;22;44728;-81
2023/07/30 08:34:23;;;;;;;;;2.00;2.00;;;;;27.14;79.65;100912.22;6263120;22;45038;-82
2023/07/30 08:36:48;;;;;;;;;2.33;1.67;;;;;27.16;82.18;100903.06;6263723;22;45643;-82
2023/07/30 08:39:14;;;;;;;;;1.00;1.00;;;;;27.14;81.65;100894.94;6253895;22;45456;-80
2023/07/30 08:41:40;;;;;;;;;3.75;2.25;;;;;27.12;80.68;100902.34;6219977;22;44804;-80
2023/07/30 08:44:06;;;;;;;;;4.50;2.75;;;;;27.04;77.78;100910.03;6219625;22;47007;-80
2023/07/30 08:46:31;;;;;;;;;4.00;3.25;;;;;27.12;80.67;100896.88;6234386;22;45606;-82
2023/07/30 08:48:57;;;;;;;;;1.50;1.50;;;;;27.33;79.45;100901.25;6237716;22;44802;-82
2023/07/30 08:51:23;;;;;;;;;5.25;3.25;;;;;27.44;75.89;100897.94;6262691;22;44807;-82
2023/07/30 08:53:49;;;;;;;;;2.50;2.50;;;;;27.56;69.12;100901.84;6263978;22;45078;-82
2023/07/30 08:56:14;;;;;;;;;1.25;1.25;;;;;27.61;73.35;100905.22;6265558;22;44891;-81
2023/07/30 08:58:41;;;;;;;;;3.00;3.00;;;;;27.68;76.35;100883.91;6264395;22;44792;-82
2023/07/30 09:01:10;;;;;;;;;2.67;2.67;;;;;28.02;73.46;100891.13;6263377;22;44792;-83
2023/07/30 09:03:39;;;;;;;;;3.00;3.00;;;;;28.04;75.11;100891.94;6265771;22;45183;-82
2023/07/30 09:06:06;;;;;;;;;3.25;3.25;;;;;28.07;71.03;100888.13;6264316;22;44788;-80
2023/07/30 09:08:33;;;;;;;;;2.67;2.67;;;;;27.87;74.25;100890.13;6249215;22;45296;-80
2023/07/30 09:11:11;;;;;;;;;2.75;2.75;;;;;28.28;72.04;100888.78;6223861;22;45352;-81
2023/07/30 09:13:41;;;;;;;;;3.00;3.00;;;;;28.19;69.11;100890.16;6262976;22;45343;-81
2023/07/30 09:16:13;;;;;;;;;2.00;2.00;;;;;28.15;66.20;100887.69;6253278;22;44862;-81
2023/07/30 09:18:43;;;;;;;;;4.00;4.00;;;;;28.00;67.64;100882.13;6253197;22;45307;-82
2023/07/30 09:21:13;;;;;;;;;2.33;2.33;;;;;28.41;72.58;100884.34;6252551;22;45237;-82
2023/07/30 09:23:43;;;;;;;;;1.00;1.00;;;;;28.58;73.31;100890.69;6251805;22;45575;-83
2023/07/30 09:26:09;;;;;;;;;4.00;4.00;;;;;28.52;67.35;100881.91;6222270;22;44819;-85
2023/07/30 09:28:35;;;;;;;;;3.33;3.33;;;;;28.67;65.58;100887.44;6220950;22;45362;-83
2023/07/30 09:31:02;;;;;;;;;2.00;2.00;;;;;28.72;66.81;100888.03;6248485;22;45343;-80
2023/07/30 09:33:27;;;;;;;;;2.25;2.25;;;;;28.40;65.89;100874.38;6246517;22;45431;-79
2023/07/30 09:35:54;;;;;;;;;2.75;2.75;;;;;28.28;67.21;100886.03;6245812;22;45249;-79
2023/07/30 09:38:20;;;;;;;;;5.33;3.00;;;;;28.10;63.49;100883.38;6245870;22;45446;-80
2023/07/30 09:40:49;;;;;;;;;2.00;2.00;;;;;28.17;64.52;100885.75;6244047;22;45344;-80
2023/07/30 09:43:18;;;;;;;;;4.00;4.00;;;;;28.45;68.97;100880.44;6217435;22;47005;-79
2023/07/30 09:45:48;;;;;;;;;2.00;2.00;;;;;28.45;63.58;100891.38;6245883;22;45351;-80
2023/07/30 09:48:14;;;;;;;;;1.75;1.75;;;;;28.29;68.15;100899.59;6248711;22;44709;-84
2023/07/30 09:50:41;;;;;;;;;5.25;4.00;;;;;28.30;67.65;100909.59;6221270;22;45376;-83
2023/07/30 09:53:10;;;;;;;;;4.33;2.00;;;;;28.30;63.27;100898.63;6248856;22;47150;-84
2023/07/30 09:55:36;;;;;;;;;2.75;1.75;;;;;27.77;63.89;100910.69;6248674;22;45630;-84
2023/07/30 09:58:01;;;;;;;;;4.75;2.00;;;;;27.72;64.15;100902.78;6222388;22;45471;-84
2023/07/30 10:00:29;;;;;;;;;2.75;2.75;;;;;28.02;62.57;100899.34;6222377;22;45254;-81
2023/07/30 10:02:56;;;;;;;;;4.50;2.00;;;;;27.88;58.67;100904.69;6254025;22;45078;-80
2023/07/30 10:05:28;;;;;;;;;1.50;1.50;;;;;27.97;58.37;100906.03;6211060;22;44768;-81
2023/07/30 10:07:59;;;;;;;;;2.00;2.00;;;;;28.06;62.29;100906.41;6263092;22;44621;-82
2023/07/30 10:10:28;;;;;;;;;2.50;2.50;;;;;27.95;61.54;100908.84;6235964;22;44822;-81
2023/07/30 10:12:57;;;;;;;;;4.00;4.00;;;;;27.97;61.29;100922.44;6249448;22;45344;-80
2023/07/30 10:15:23;;;;;;;;;2.67;2.00;;;;;27.62;62.40;100917.91;6221094;22;45419;-81
2023/07/30 10:17:52;;;;;;;;;1.00;1.00;;;;;27.73;57.10;100920.94;6249071;22;45592;-82
2023/07/30 10:20:25;;;;;;;;;4.33;4.00;;;;;28.01;61.30;100913.97;6225448;22;44856;-81
2023/07/30 10:23:29;;;;;;;;;3.00;3.00;;;;;28.29;62.12;100926.94;6246346;22;45787;-80
2023/07/30 10:25:56;;;;;;;;;2.75;2.75;;;;;28.32;62.86;100928.66;6217779;22;45158;-80
2023/07/30 10:28:35;;;;;;;;;3.25;3.25;;;;;28.99;60.03;100922.97;6218193;22;44773;-80
2023/07/30 10:31:04;;;;;;;;;2.25;2.25;;;;;28.89;60.50;100922.63;6218596;22;45751;-81
2023/07/30 10:33:49;;;;;;;;;2.00;2.00;;;;;29.12;60.16;100930.34;6250122;22;45066;-82
2023/07/30 10:36:18;;;;;;;;;2.00;2.00;;;;;28.87;61.40;100924.56;6253036;22;45384;-81
2023/07/30 10:38:44;;;;;;;;;1.50;1.50;;;;;28.42;56.39;100924.41;6227153;22;44833;-81
2023/07/30 10:41:13;;;;;;;;;3.00;3.00;;;;;28.63;60.81;100926.91;6227041;22;44839;-81
2023/07/30 10:43:43;;;;;;;;;4.33;2.33;;;;;28.71;58.79;100930.06;6225751;22;47260;-83
2023/07/30 10:46:18;;;;;;;;;1.00;1.00;;;;;28.71;60.48;100922.72;6226069;22;44731;-82
2023/07/30 10:48:47;;;;;;;;;4.50;3.00;;;;;28.61;55.30;100923.38;6249858;22;45620;-80
2023/07/30 10:51:16;;;;;;;;;3.50;2.00;;;;;28.57;57.34;100911.72;6224271;22;44983;-80
2023/07/30 10:53:49;;;;;;;;;1.00;1.00;;;;;28.67;59.49;100925.75;6253799;22;45162;-81
2023/07/30 10:56:17;;;;;;;;;4.00;2.50;;;;;28.64;57.73;100917.69;6225520;22;45104;-81
2023/07/30 10:58:48;;;;;;;;;2.00;2.00;;;;;28.69;55.23;100921.94;6225465;22;44776;-81
2023/07/30 11:01:14;;;;;;;;;4.00;3.75;;;;;29.04;56.31;100918.94;6228082;22;45321;-80
2023/07/30 11:03:40;;;;;;;;;2.00;2.00;;;;;29.17;53.11;100920.97;6254153;22;45041;-81
2023/07/30 11:06:05;;;;;;;;;1.25;1.25;;;;;29.31;55.82;100918.28;6253943;22;44812;-80
2023/07/30 11:08:39;;;;;;;;;4.00;3.00;;;;;29.64;58.08;100920.75;6254732;22;44919;-80
2023/07/30 11:11:06;;;;;;;;;2.00;2.00;;;;;29.28;57.57;100922.06;6227252;22;44818;-81
2023/07/30 11:13:42;;;;;;;;;6.00;4.00;;;;;29.48;58.11;100918.09;6263011;22;45626;-83
2023/07/30 11:16:09;;;;;;;;;2.00;2.00;;;;;29.30;54.30;100925.59;6264886;22;44745;-81
2023/07/30 11:18:36;;;;;;;;;1.75;1.50;;;;;29.42;58.07;100932.19;6264896;22;45232;-81
2023/07/30 11:21:18;;;;;;;;;2.00;2.00;;;;;29.82;57.26;100937.94;6237674;22;44853;-81
2023/07/30 11:23:45;;;;;;;;;2.25;2.25;;;;;29.76;56.05;100930.09;6236325;22;47392;-82